Fairfield, Nebraska
Current Conditions -  °F | °C
As of 5:53 AM on Sunday 25 Jan 2015 (Local Time) from KHSI Reporting Station
Overcast Overcast  
Wind Chill: 30°   Ceiling: 2400
Heat Index: 41°   Visibility: 10mi
Dew Point: 31°   Wind: 28mph
Humidity: 67%   Direction: 330°NNW
Pressure: 29.87"   Gusts: 39mph
Location:  40.43°N, 98.11°W
Report Text: KHSI 251153Z AUTO 33024G34KT 10SM OVC024 05/M01 A2987 RMK AO2 PK WND 34035/1055 SLP120 60000 T00501006 10078 20044 53015
Loading
Personal Weather Stations






























Interactive Weather Map New forecast layout! Learn more

10-Day Weather Forecast

Advertisements
Track Severe Weather on mobile